Perch, North Carolina
Current Conditions -  °F | °C
As of 6:35 PM on Saturday 22 Nov 2014 (Local Time) from KMWK Reporting Station
Clear Clear  
Wind Chill:   Ceiling: Unl
Heat Index:   Visibility: 10mi
Dew Point: -7°   Wind: 0mph
Humidity: 40%   Direction: NA
Pressure: 30.34"   Gusts: NA
Location:  36.3244°N, 80.463°W
Report Text: KMWK 222335Z AUTO 00000KT 10SM CLR 06/M07 A3034 RMK AO2 T00601067
Loading
Personal Weather Stations






























Interactive Weather Map New forecast layout! Learn more

10-Day Weather Forecast

Advertisements
Track Severe Weather on mobile